Time;durP1;ratioP1;P1;durP2;ratioP2;P2;SDS_P1;SDS_P2;PMS_P1;PMS_P2;Temp;Humidity;BMP_temperature;BMP_pressure;BME280_temperature;BME280_humidity;BME280_pressure;Samples;Min_cycle;Max_cycle;Signal;HPM_P1;HPM_P2
2023/06/17 00:01:21;;;;;;;6.95;3.95;;;;;;;21.34;49.55;99114.09;4329913;33;34265;-59
2023/06/17 00:03:49;;;;;;;8.88;3.80;;;;;;;21.36;49.28;99117.50;4328544;33;33796;-59
2023/06/17 00:06:16;;;;;;;5.85;3.17;;;;;;;21.38;49.13;99116.28;4328427;33;34316;-59
2023/06/17 00:08:44;;;;;;;7.82;3.62;;;;;;;21.40;48.96;99116.06;4329255;33;34736;-59
2023/06/17 00:11:12;;;;;;;7.12;3.40;;;;;;;21.32;49.03;99103.41;4331502;33;33412;-59
2023/06/17 00:13:39;;;;;;;5.68;3.72;;;;;;;21.21;49.11;99100.41;4331616;33;33886;-59
2023/06/17 00:16:07;;;;;;;6.72;3.33;;;;;;;21.17;48.65;99092.63;4329498;33;33948;-59
2023/06/17 00:18:34;;;;;;;11.85;4.05;;;;;;;20.79;49.97;99094.03;4325474;33;34090;-59
2023/06/17 00:21:02;;;;;;;5.97;3.30;;;;;;;21.13;48.23;99096.81;4331155;33;32854;-59
2023/06/17 00:23:30;;;;;;;6.40;3.92;;;;;;;20.86;48.45;99093.03;4331453;33;33190;-59
2023/06/17 00:25:58;;;;;;;5.22;2.87;;;;;;;20.90;48.24;99097.06;4328910;33;34126;-60
2023/06/17 00:28:26;;;;;;;5.72;3.30;;;;;;;21.00;47.88;99091.28;4324020;33;33792;-59
2023/06/17 00:30:53;;;;;;;5.60;3.47;;;;;;;20.60;48.74;99090.91;4329035;33;34444;-59
2023/06/17 00:33:22;;;;;;;16.02;4.25;;;;;;;20.89;47.94;99102.66;4331970;33;33537;-59
2023/06/17 00:35:49;;;;;;;4.47;3.00;;;;;;;20.70;48.33;99101.47;4326727;33;35174;-59
2023/06/17 00:38:20;;;;;;;9.23;3.67;;;;;;;20.58;48.57;99103.06;4331419;33;34088;-59
2023/06/17 00:40:48;;;;;;;5.55;3.25;;;;;;;21.03;47.52;99101.75;4329947;33;33809;-59
2023/06/17 00:43:15;;;;;;;6.50;3.53;;;;;;;20.98;47.50;99097.94;4327819;33;33822;-59
2023/06/17 00:45:43;;;;;;;4.80;3.08;;;;;;;20.84;47.46;99099.72;4331212;33;34221;-58
2023/06/17 00:48:11;;;;;;;7.95;3.28;;;;;;;21.10;47.62;99102.63;4330116;33;35432;-58
2023/06/17 00:50:39;;;;;;;6.50;3.60;;;;;;;21.21;47.18;99097.69;4328843;33;33241;-58
2023/06/17 00:53:09;;;;;;;12.02;3.62;;;;;;;21.25;47.22;99097.09;4315764;33;33169;-59
2023/06/17 00:55:39;;;;;;;7.25;3.83;;;;;;;21.29;47.04;99092.94;4316837;33;33769;-59
2023/06/17 00:58:08;;;;;;;5.28;3.08;;;;;;;21.32;46.65;99094.44;4313673;33;34100;-59
2023/06/17 01:00:36;;;;;;;8.23;3.15;;;;;;;21.28;46.67;99083.06;4317388;33;33285;-59
2023/06/17 01:03:05;;;;;;;5.40;2.72;;;;;;;21.26;46.59;99087.88;4331063;33;33192;-58
2023/06/17 01:05:34;;;;;;;4.78;3.00;;;;;;;21.31;46.38;99085.38;4328389;33;34354;-59
2023/06/17 01:08:12;;;;;;;6.65;3.40;;;;;;;20.80;48.17;99082.09;4330307;33;34592;-58
2023/06/17 01:11:09;;;;;;;6.18;2.72;;;;;;;21.13;46.87;99075.03;4316941;33;33408;-58
2023/06/17 01:13:38;;;;;;;6.47;3.60;;;;;;;20.99;47.37;99072.41;4327796;33;34729;-58
2023/06/17 01:16:06;;;;;;;6.95;4.05;;;;;;;21.20;46.78;99071.53;4314514;33;34947;-58
2023/06/17 01:18:34;;;;;;;4.90;2.70;;;;;;;21.14;46.90;99073.16;4298469;33;33902;-59
2023/06/17 01:21:05;;;;;;;6.90;4.50;;;;;;;20.77;48.34;99079.75;4299025;33;34619;-58
2023/06/17 01:23:34;;;;;;;5.95;3.25;;;;;;;20.80;48.25;99079.37;4286452;33;33700;-58
2023/06/17 01:26:03;;;;;;;9.90;3.53;;;;;;;20.91;47.69;99074.25;4300697;33;34237;-59
2023/06/17 01:28:33;;;;;;;8.45;4.18;;;;;;;21.15;46.92;99074.81;4296601;33;35134;-58
2023/06/17 01:31:01;;;;;;;5.95;3.05;;;;;;;21.02;47.42;99077.47;4296412;33;33287;-58
2023/06/17 01:33:29;;;;;;;7.12;2.75;;;;;;;20.85;47.88;99083.19;4300599;33;32758;-58
2023/06/17 01:35:56;;;;;;;5.80;3.00;;;;;;;20.99;47.31;99080.56;4295197;33;33702;-59
2023/06/17 01:38:45;;;;;;;7.35;2.97;;;;;;;20.82;47.94;99089.03;4298515;33;33900;-58
2023/06/17 01:41:24;;;;;;;6.97;3.35;;;;;;;20.82;48.08;99085.47;4292768;33;34398;-59
2023/06/17 01:43:53;;;;;;;4.68;2.47;;;;;;;21.13;47.37;99085.91;4298477;33;34567;-58
2023/06/17 01:46:22;;;;;;;6.60;3.65;;;;;;;20.96;47.83;99080.97;4300784;33;34130;-58
2023/06/17 01:48:52;;;;;;;6.07;3.85;;;;;;;20.76;48.32;99086.25;4302568;33;34004;-59
2023/06/17 01:51:20;;;;;;;5.72;2.87;;;;;;;20.93;47.64;99079.50;4334195;33;35077;-59
2023/06/17 01:53:47;;;;;;;5.78;3.20;;;;;;;21.10;47.10;99080.88;4330906;33;35013;-59
2023/06/17 01:56:15;;;;;;;7.65;3.42;;;;;;;21.14;46.88;99079.44;4330069;33;33781;-59
2023/06/17 01:58:43;;;;;;;4.65;2.97;;;;;;;20.86;47.61;99076.69;4336362;33;33720;-59
2023/06/17 02:01:11;;;;;;;6.15;3.53;;;;;;;21.06;47.35;99081.44;4334426;33;33811;-59
2023/06/17 02:03:39;;;;;;;7.37;3.55;;;;;;;21.03;47.25;99073.72;4329604;33;33667;-59
2023/06/17 02:06:08;;;;;;;9.43;3.42;;;;;;;21.06;47.18;99070.56;4330567;33;33952;-59
2023/06/17 02:08:37;;;;;;;8.45;3.75;;;;;;;20.91;47.63;99074.25;4327212;33;33564;-58
2023/06/17 02:11:05;;;;;;;5.87;3.28;;;;;;;20.84;47.67;99075.25;4317158;33;34672;-58
2023/06/17 02:13:32;;;;;;;7.37;3.40;;;;;;;20.55;48.25;99077.09;4328204;33;33494;-58
2023/06/17 02:15:59;;;;;;;5.43;2.80;;;;;;;20.51;48.17;99074.91;4334278;33;33924;-58
2023/06/17 02:18:27;;;;;;;4.78;2.78;;;;;;;20.68;47.86;99076.38;4329621;33;34103;-58
2023/06/17 02:20:55;;;;;;;7.30;2.90;;;;;;;20.22;48.97;99077.59;4335221;33;34715;-58
2023/06/17 02:23:23;;;;;;;3.90;2.58;;;;;;;19.98;49.44;99070.63;4328046;33;33946;-58
2023/06/17 02:25:52;;;;;;;4.97;2.70;;;;;;;19.87;49.73;99073.84;4330597;33;34760;-58
2023/06/17 02:28:20;;;;;;;5.07;2.97;;;;;;;20.34;48.79;99085.19;4335551;33;32397;-58
2023/06/17 02:30:48;;;;;;;5.28;2.97;;;;;;;20.25;48.93;99076.31;4341647;33;33154;-58
2023/06/17 02:33:18;;;;;;;5.90;3.50;;;;;;;19.62;50.45;99081.44;4332804;33;33978;-58
2023/06/17 02:35:46;;;;;;;5.37;3.12;;;;;;;20.26;48.73;99083.47;4333360;33;34323;-58
2023/06/17 02:38:14;;;;;;;5.37;3.33;;;;;;;20.35;48.58;99093.19;4330639;33;34958;-59
2023/06/17 02:40:42;;;;;;;4.97;2.62;;;;;;;20.18;49.21;99083.56;4328855;33;35179;-59
2023/06/17 02:43:09;;;;;;;5.22;2.87;;;;;;;20.03;49.80;99086.31;4324583;33;34001;-59
2023/06/17 02:45:37;;;;;;;4.95;2.55;;;;;;;20.16;49.13;99088.34;4335991;33;34670;-59
2023/06/17 02:48:05;;;;;;;5.55;2.85;;;;;;;20.46;48.51;99099.97;4328782;33;34267;-59
2023/06/17 02:50:33;;;;;;;4.50;2.87;;;;;;;20.04;49.59;99093.47;4330861;33;34263;-59
2023/06/17 02:53:04;;;;;;;11.38;4.15;;;;;;;20.18;49.31;99098.00;4329901;33;33699;-59
2023/06/17 02:55:31;;;;;;;6.78;3.47;;;;;;;20.22;49.20;99099.31;4330266;33;34184;-59
2023/06/17 02:58:02;;;;;;;5.70;3.33;;;;;;;20.37;48.56;99096.53;4324586;33;34632;-59
2023/06/17 03:00:30;;;;;;;8.63;3.35;;;;;;;20.12;49.40;99097.94;4329106;33;33345;-58
2023/06/17 03:02:58;;;;;;;5.00;3.03;;;;;;;20.22;49.64;99096.59;4331681;33;33493;-59
2023/06/17 03:05:26;;;;;;;5.85;3.28;;;;;;;19.77;50.40;99098.59;4333480;33;34083;-58
2023/06/17 03:07:54;;;;;;;7.03;3.67;;;;;;;19.54;50.88;99104.06;4341639;33;33680;-58
2023/06/17 03:10:21;;;;;;;5.20;2.70;;;;;;;19.54;50.86;99100.50;4331134;33;33171;-58
2023/06/17 03:12:50;;;;;;;8.95;3.53;;;;;;;19.41;50.97;99108.47;4328089;33;33936;-58
2023/06/17 03:15:18;;;;;;;6.00;2.75;;;;;;;19.34;51.44;99108.38;4340921;33;34869;-58
2023/06/17 03:17:45;;;;;;;5.85;3.62;;;;;;;19.93;49.62;99108.34;4335376;33;34953;-58
2023/06/17 03:20:14;;;;;;;6.03;3.17;;;;;;;19.37;50.99;99113.44;4336409;33;33099;-58
2023/06/17 03:22:42;;;;;;;4.57;2.87;;;;;;;18.99;52.06;99109.94;4336528;33;35112;-58
2023/06/17 03:25:10;;;;;;;7.85;3.10;;;;;;;19.56;50.87;99109.31;4327760;33;33762;-58
2023/06/17 03:27:38;;;;;;;5.15;2.62;;;;;;;19.78;50.10;99105.69;4334063;33;33656;-58
2023/06/17 03:30:06;;;;;;;5.57;3.35;;;;;;;19.81;50.19;99115.34;4336798;33;34773;-58
2023/06/17 03:32:33;;;;;;;6.40;3.08;;;;;;;19.64;50.62;99111.13;4330324;33;34054;-58
2023/06/17 03:35:02;;;;;;;7.12;4.05;;;;;;;19.22;51.92;99120.72;4330004;33;35058;-58
2023/06/17 03:37:30;;;;;;;5.53;3.80;;;;;;;18.67;53.68;99122.72;4336144;33;33698;-62
2023/06/17 03:39:57;;;;;;;3.90;2.72;;;;;;;19.31;51.77;99130.47;4330334;33;33301;-57
2023/06/17 03:42:27;;;;;;;5.55;3.83;;;;;;;19.33;51.70;99125.72;4329428;33;34903;-57
2023/06/17 03:44:54;;;;;;;4.87;2.42;;;;;;;19.38;52.20;99127.84;4331836;33;34034;-57
2023/06/17 03:47:22;;;;;;;7.22;3.47;;;;;;;19.61;51.21;99133.19;4330592;33;35151;-57
2023/06/17 03:49:50;;;;;;;7.00;2.90;;;;;;;19.61;51.41;99133.19;4344854;33;32937;-57
2023/06/17 03:52:18;;;;;;;7.50;3.80;;;;;;;19.86;50.61;99133.75;4338092;33;34291;-57
2023/06/17 03:54:45;;;;;;;6.20;3.42;;;;;;;19.66;51.07;99142.47;4334957;33;35041;-57
2023/06/17 03:57:14;;;;;;;6.53;3.28;;;;;;;19.65;51.01;99140.81;4329836;33;33312;-57
2023/06/17 03:59:41;;;;;;;8.52;4.10;;;;;;;19.72;50.77;99141.72;4334417;33;33310;-57
2023/06/17 04:02:09;;;;;;;11.80;3.12;;;;;;;19.43;51.78;99139.84;4331010;33;33552;-59
2023/06/17 04:04:38;;;;;;;4.45;2.30;;;;;;;19.76;51.04;99137.59;4336533;33;34439;-58
2023/06/17 04:07:06;;;;;;;8.60;3.17;;;;;;;20.09;50.45;99141.78;4330711;33;33429;-58
2023/06/17 04:09:33;;;;;;;4.35;2.35;;;;;;;19.90;50.82;99143.19;4330789;33;33301;-58
2023/06/17 04:12:02;;;;;;;3.12;1.95;;;;;;;20.06;50.30;99132.13;4330545;33;32593;-59
2023/06/17 04:14:29;;;;;;;4.93;3.05;;;;;;;20.11;50.32;99132.41;4337740;33;34025;-58
2023/06/17 04:16:59;;;;;;;5.57;3.10;;;;;;;20.27;49.87;99138.66;4329564;33;34477;-58
2023/06/17 04:19:27;;;;;;;10.73;4.03;;;;;;;20.60;49.37;99139.84;4338599;33;33103;-58
2023/06/17 04:21:54;;;;;;;4.28;2.62;;;;;;;20.27;49.79;99153.06;4334017;33;34303;-58
2023/06/17 04:24:22;;;;;;;7.18;3.62;;;;;;;20.29;49.92;99147.44;4329803;33;34950;-58
2023/06/17 04:26:52;;;;;;;6.28;3.55;;;;;;;20.48;49.00;99147.66;4329426;33;34156;-58
2023/06/17 04:29:20;;;;;;;4.70;2.87;;;;;;;20.62;49.14;99148.66;4330867;33;34362;-58
2023/06/17 04:31:49;;;;;;;4.60;3.10;;;;;;;20.69;49.25;99152.28;4319498;33;33541;-58
2023/06/17 04:34:21;;;;;;;8.60;3.65;;;;;;;20.89;48.63;99151.62;4335509;33;33940;-58
2023/06/17 04:36:56;;;;;;;5.97;3.37;;;;;;;20.75;48.65;99153.41;4331598;33;34703;-58
2023/06/17 04:39:26;;;;;;;4.47;3.17;;;;;;;20.40;49.34;99155.94;4328598;33;33307;-58
2023/06/17 04:41:54;;;;;;;4.20;2.70;;;;;;;20.82;48.88;99167.06;4297332;33;34801;-58
2023/06/17 04:44:22;;;;;;;5.15;3.28;;;;;;;20.68;49.51;99163.37;4300469;33;33941;-58
2023/06/17 04:46:50;;;;;;;6.78;3.40;;;;;;;20.72;49.27;99159.22;4299037;33;34220;-58
2023/06/17 04:49:18;;;;;;;6.32;3.50;;;;;;;20.27;50.00;99161.22;4297933;33;33728;-58
2023/06/17 04:51:48;;;;;;;6.18;3.70;;;;;;;20.21;50.41;99165.53;4300083;33;32376;-58
2023/06/17 04:54:18;;;;;;;5.57;3.12;;;;;;;20.61;49.34;99162.44;4307364;33;34254;-58
2023/06/17 04:56:45;;;;;;;5.72;3.50;;;;;;;20.37;50.44;99169.06;4299354;33;34039;-58
2023/06/17 04:59:13;;;;;;;5.10;2.67;;;;;;;20.70;49.64;99156.69;4299752;33;33120;-59
2023/06/17 05:01:41;;;;;;;5.18;2.83;;;;;;;20.35;50.37;99157.53;4295461;33;34290;-58
2023/06/17 05:04:08;;;;;;;7.05;3.65;;;;;;;20.91;49.05;99160.44;4298497;33;33842;-58
2023/06/17 05:06:36;;;;;;;5.72;3.55;;;;;;;20.48;49.83;99163.13;4298646;33;33947;-59
2023/06/17 05:09:04;;;;;;;6.25;2.78;;;;;;;20.39;50.11;99161.56;4299273;33;33674;-58
2023/06/17 05:11:32;;;;;;;8.02;3.30;;;;;;;20.42;49.75;99161.19;4296439;33;33704;-58
2023/06/17 05:13:59;;;;;;;7.57;3.62;;;;;;;20.35;50.36;99155.69;4328382;33;35639;-59
2023/06/17 05:16:27;;;;;;;5.32;3.10;;;;;;;20.72;49.59;99163.81;4337331;33;33550;-58
2023/06/17 05:18:55;;;;;;;5.72;3.20;;;;;;;20.28;51.41;99171.06;4331882;33;33225;-58
2023/06/17 05:21:23;;;;;;;5.60;3.25;;;;;;;20.70;50.42;99167.56;4337394;33;33571;-58
2023/06/17 05:23:51;;;;;;;4.97;2.90;;;;;;;20.55;50.31;99165.97;4332661;33;33749;-58
2023/06/17 05:26:19;;;;;;;4.28;2.08;;;;;;;20.64;49.94;99164.78;4329687;33;34430;-58
2023/06/17 05:28:46;;;;;;;14.10;3.12;;;;;;;20.68;50.43;99169.66;4336356;33;33061;-58
2023/06/17 05:31:14;;;;;;;6.47;3.15;;;;;;;19.82;51.63;99175.91;4330439;33;33569;-58
2023/06/17 05:33:42;;;;;;;4.37;2.78;;;;;;;19.63;52.77;99185.41;4329227;33;34127;-58
2023/06/17 05:36:10;;;;;;;5.43;3.15;;;;;;;20.20;51.63;99191.03;4331337;33;34542;-59
2023/06/17 05:38:38;;;;;;;7.37;3.42;;;;;;;20.44;50.83;99183.56;4331276;33;34373;-58
2023/06/17 05:41:05;;;;;;;4.97;3.20;;;;;;;20.60;50.16;99186.06;4328925;33;32572;-59
2023/06/17 05:43:33;;;;;;;7.00;3.17;;;;;;;20.89;49.45;99184.28;4329798;33;33662;-58
2023/06/17 05:46:01;;;;;;;4.87;2.85;;;;;;;19.95;51.74;99187.78;4331215;33;33405;-59
2023/06/17 05:48:29;;;;;;;9.50;4.60;;;;;;;20.08;51.45;99184.41;4340172;33;33266;-58
2023/06/17 05:50:56;;;;;;;6.37;3.45;;;;;;;19.74;52.66;99187.69;4333567;33;33583;-59
2023/06/17 05:53:24;;;;;;;5.85;3.30;;;;;;;19.89;52.15;99195.84;4325429;33;98873;-58
2023/06/17 05:55:52;;;;;;;8.98;3.85;;;;;;;19.99;52.51;99194.50;4328172;33;34088;-58
2023/06/17 05:58:19;;;;;;;7.03;3.50;;;;;;;19.71;53.07;99199.78;4332246;33;34411;-59
2023/06/17 06:00:48;;;;;;;6.75;3.83;;;;;;;19.78;52.96;99195.28;4332710;33;33472;-58
2023/06/17 06:03:16;;;;;;;7.60;3.97;;;;;;;19.63;53.66;99205.25;4334428;33;35204;-58
2023/06/17 06:05:43;;;;;;;10.05;3.60;;;;;;;19.74;53.33;99196.69;4338452;33;33775;-58
2023/06/17 06:08:11;;;;;;;5.30;2.97;;;;;;;19.89;53.46;99188.53;4327334;33;33081;-59
2023/06/17 06:10:38;;;;;;;6.32;3.47;;;;;;;20.73;51.51;99193.53;4328519;33;33776;-58
2023/06/17 06:13:06;;;;;;;5.68;3.20;;;;;;;20.10;53.01;99193.22;4329144;33;33818;-58
2023/06/17 06:15:34;;;;;;;8.32;4.28;;;;;;;20.44;52.95;99192.56;4327356;33;33696;-58
2023/06/17 06:18:02;;;;;;;10.32;3.62;;;;;;;20.01;53.66;99189.75;4324724;33;33241;-59
2023/06/17 06:20:29;;;;;;;5.95;3.67;;;;;;;20.04;53.83;99198.56;4328545;33;33840;-59
2023/06/17 06:22:58;;;;;;;6.25;3.40;;;;;;;19.69;55.17;99192.84;4333102;33;33707;-59
2023/06/17 06:25:26;;;;;;;7.20;3.75;;;;;;;19.42;56.02;99200.56;4331318;33;33618;-58
2023/06/17 06:27:54;;;;;;;6.37;3.15;;;;;;;20.25;54.31;99188.56;4327118;33;34214;-59
2023/06/17 06:30:22;;;;;;;8.45;3.33;;;;;;;20.12;54.14;99182.12;4337248;33;33537;-58
2023/06/17 06:32:51;;;;;;;7.22;4.45;;;;;;;20.53;53.42;99185.16;4328949;33;34454;-58
2023/06/17 06:35:20;;;;;;;7.70;4.22;;;;;;;20.38;54.07;99173.47;4329107;33;33891;-59
2023/06/17 06:37:48;;;;;;;6.35;3.80;;;;;;;20.12;54.20;99184.84;4328489;33;33193;-59
2023/06/17 06:40:16;;;;;;;5.87;3.30;;;;;;;19.88;54.55;99192.28;4328070;33;34964;-59
2023/06/17 06:42:45;;;;;;;6.37;3.08;;;;;;;19.96;55.24;99185.91;4328684;33;33811;-59
2023/06/17 06:45:13;;;;;;;6.68;3.35;;;;;;;20.18;55.23;99184.94;4330226;33;34663;-59
2023/06/17 06:47:41;;;;;;;7.80;4.37;;;;;;;20.56;54.31;99187.50;4333964;33;33663;-59
2023/06/17 06:50:09;;;;;;;8.38;3.60;;;;;;;20.21;54.31;99192.72;4335493;33;33638;-59
2023/06/17 06:52:37;;;;;;;6.28;3.80;;;;;;;20.99;53.36;99190.22;4336743;33;35087;-58
2023/06/17 06:55:05;;;;;;;6.62;3.45;;;;;;;21.08;53.19;99194.50;4333643;33;33610;-60
2023/06/17 06:57:32;;;;;;;5.97;3.37;;;;;;;21.38;52.33;99197.94;4324550;33;32844;-59
2023/06/17 07:00:00;;;;;;;8.32;3.62;;;;;;;21.73;50.78;99188.94;4325654;33;33697;-59
2023/06/17 07:02:29;;;;;;;7.05;3.47;;;;;;;21.47;50.91;99195.88;4309381;33;32264;-59
2023/06/17 07:04:56;;;;;;;6.50;3.33;;;;;;;21.08;52.97;99194.50;4330560;33;33822;-58
2023/06/17 07:07:25;;;;;;;6.78;3.97;;;;;;;21.36;52.02;99197.28;4333786;33;33110;-59
2023/06/17 07:09:52;;;;;;;6.35;3.10;;;;;;;21.14;51.38;99199.16;4329248;33;34780;-59
2023/06/17 07:12:20;;;;;;;6.82;3.05;;;;;;;21.28;51.67;99199.25;4329559;33;34773;-58
2023/06/17 07:14:47;;;;;;;4.87;3.17;;;;;;;21.50;51.88;99200.94;4332332;33;33854;-59
2023/06/17 07:17:15;;;;;;;6.43;2.92;;;;;;;21.69;50.86;99210.28;4334747;33;34205;-59
2023/06/17 07:19:43;;;;;;;8.82;3.40;;;;;;;21.29;51.68;99195.53;4335026;33;33226;-59
2023/06/17 07:22:10;;;;;;;6.32;3.30;;;;;;;21.77;50.74;99195.69;4330007;33;35283;-59
2023/06/17 07:24:38;;;;;;;8.75;4.20;;;;;;;21.90;50.48;99206.66;4330939;33;33832;-58
2023/06/17 07:27:06;;;;;;;5.40;3.12;;;;;;;21.56;50.44;99202.03;4331987;33;34140;-59
2023/06/17 07:29:34;;;;;;;5.18;3.03;;;;;;;21.75;49.83;99198.59;4332027;33;33980;-59
2023/06/17 07:32:02;;;;;;;6.37;4.28;;;;;;;21.51;50.53;99199.03;4328621;33;33932;-59
2023/06/17 07:34:30;;;;;;;5.47;3.15;;;;;;;21.91;50.66;99197.44;4323435;33;32826;-60
2023/06/17 07:36:58;;;;;;;4.55;2.87;;;;;;;21.94;49.90;99197.03;4329037;33;31663;-59
2023/06/17 07:39:26;;;;;;;6.72;3.37;;;;;;;22.28;49.40;99192.63;4333652;33;34092;-59
2023/06/17 07:41:53;;;;;;;4.72;3.05;;;;;;;22.65;48.31;99193.13;4328443;33;33542;-58
2023/06/17 07:44:21;;;;;;;8.00;4.07;;;;;;;22.06;47.93;99203.59;4332769;33;34588;-59
2023/06/17 07:46:48;;;;;;;5.22;3.08;;;;;;;22.21;47.65;99194.44;4329651;33;33246;-59
2023/06/17 07:49:16;;;;;;;7.22;3.28;;;;;;;22.43;47.91;99192.44;4329925;33;33534;-59
2023/06/17 07:51:44;;;;;;;6.18;3.67;;;;;;;22.53;47.03;99193.72;4336699;33;34050;-59
2023/06/17 07:54:11;;;;;;;6.70;3.35;;;;;;;22.45;46.98;99185.75;4331421;33;33914;-59
2023/06/17 07:56:39;;;;;;;6.90;3.30;;;;;;;22.57;48.11;99188.72;4328176;33;32851;-59
2023/06/17 07:59:06;;;;;;;5.07;3.42;;;;;;;22.47;47.96;99197.31;4331288;33;33939;-59
2023/06/17 08:01:35;;;;;;;5.82;3.10;;;;;;;22.15;48.72;99187.91;4332275;33;34252;-59
2023/06/17 08:04:03;;;;;;;5.65;3.80;;;;;;;22.03;48.99;99186.81;4326008;33;33892;-58
2023/06/17 08:06:30;;;;;;;9.10;3.10;;;;;;;22.65;48.80;99195.88;4326343;33;33643;-60
2023/06/17 08:08:58;;;;;;;6.35;2.90;;;;;;;22.88;46.86;99190.03;4323923;33;33379;-61
2023/06/17 08:11:26;;;;;;;7.07;2.72;;;;;;;23.03;45.22;99196.19;4326372;33;35386;-60
2023/06/17 08:13:53;;;;;;;8.52;3.15;;;;;;;22.71;46.55;99193.16;4321681;33;33727;-61
2023/06/17 08:16:21;;;;;;;6.55;3.05;;;;;;;22.51;47.14;99192.28;4326523;33;33591;-60
2023/06/17 08:18:48;;;;;;;4.90;3.08;;;;;;;22.45;47.21;99183.03;4327049;33;35032;-61
2023/06/17 08:21:16;;;;;;;8.23;3.65;;;;;;;22.70;47.75;99180.56;4338260;33;34926;-60
2023/06/17 08:23:43;;;;;;;5.60;3.28;;;;;;;22.50;48.06;99183.25;4328745;33;34278;-60
2023/06/17 08:26:11;;;;;;;4.62;3.08;;;;;;;23.01;47.53;99181.88;4325039;33;34518;-61
2023/06/17 08:28:39;;;;;;;5.18;3.37;;;;;;;22.94;47.24;99187.34;4330547;33;33903;-60
2023/06/17 08:31:07;;;;;;;4.60;2.67;;;;;;;23.18;45.88;99187.81;4331225;33;34230;-60
2023/06/17 08:33:34;;;;;;;6.53;3.33;;;;;;;23.22;46.21;99186.31;4331140;33;34785;-61
2023/06/17 08:36:02;;;;;;;5.65;3.03;;;;;;;22.93;46.96;99187.53;4330307;33;33231;-60
2023/06/17 08:38:29;;;;;;;11.50;2.90;;;;;;;22.77;47.02;99196.94;4332714;33;33977;-61
2023/06/17 08:40:57;;;;;;;8.07;3.20;;;;;;;23.10;46.79;99190.72;4328830;33;33778;-60
2023/06/17 08:43:25;;;;;;;8.43;3.78;;;;;;;22.97;47.22;99194.28;4327746;33;33791;-61
2023/06/17 08:45:54;;;;;;;5.45;3.70;;;;;;;23.15;47.85;99190.94;4328590;33;33389;-61
2023/06/17 08:48:22;;;;;;;9.07;3.20;;;;;;;22.95;47.24;99186.31;4331406;33;34533;-61
2023/06/17 08:50:50;;;;;;;4.93;2.95;;;;;;;22.81;47.64;99184.56;4331928;33;35432;-61
2023/06/17 08:53:18;;;;;;;6.10;2.97;;;;;;;22.91;46.89;99193.19;4335816;33;33555;-61
2023/06/17 08:55:47;;;;;;;4.30;2.47;;;;;;;23.04;45.75;99188.81;4324644;33;32941;-61
2023/06/17 08:58:14;;;;;;;4.57;2.85;;;;;;;23.32;45.99;99189.47;4326645;33;33337;-61
2023/06/17 09:00:42;;;;;;;7.37;3.12;;;;;;;23.19;45.70;99197.66;4328768;33;35223;-61
2023/06/17 09:03:10;;;;;;;9.05;2.65;;;;;;;23.11;46.47;99197.84;4332590;33;33891;-61
2023/06/17 09:05:38;;;;;;;4.07;2.42;;;;;;;23.55;45.88;99197.22;4334234;33;32632;-61
2023/06/17 09:08:06;;;;;;;5.10;2.47;;;;;;;23.95;45.46;99188.97;4334420;33;33607;-60
2023/06/17 09:10:43;;;;;;;5.20;2.80;;;;;;;24.48;43.60;99187.94;4327484;33;34116;-61
2023/06/17 09:13:11;;;;;;;6.40;2.75;;;;;;;24.43;44.72;99190.47;4326859;33;34765;-61
2023/06/17 09:15:40;;;;;;;7.78;2.75;;;;;;;24.44;43.53;99192.19;4332554;33;32272;-61
2023/06/17 09:18:08;;;;;;;6.55;3.33;;;;;;;24.30;44.34;99186.75;4330464;33;33595;-61
2023/06/17 09:20:35;;;;;;;3.97;2.47;;;;;;;24.32;44.53;99184.63;4327909;33;35301;-61
2023/06/17 09:23:03;;;;;;;4.60;2.85;;;;;;;24.89;43.00;99179.28;4328927;33;33615;-61
2023/06/17 09:25:33;;;;;;;5.62;3.00;;;;;;;24.77;42.88;99183.78;4327767;33;33033;-61
2023/06/17 09:28:01;;;;;;;5.60;2.92;;;;;;;24.75;43.04;99186.75;4328346;33;34606;-61
2023/06/17 09:30:53;;;;;;;5.00;3.33;;;;;;;24.97;43.38;99189.94;4327047;33;34681;-61
2023/06/17 09:33:22;;;;;;;7.57;3.10;;;;;;;25.26;42.78;99195.88;4328545;33;33645;-61
2023/06/17 09:36:00;;;;;;;6.32;3.25;;;;;;;25.23;42.01;99197.19;4326270;33;33078;-61
2023/06/17 09:38:28;;;;;;;8.02;3.50;;;;;;;25.11;41.43;99190.72;4327946;33;33796;-61
2023/06/17 09:40:55;;;;;;;4.62;2.62;;;;;;;24.90;42.14;99189.16;4329059;33;34055;-61
2023/06/17 09:43:27;;;;;;;6.37;3.10;;;;;;;25.23;41.46;99199.06;4332262;33;33562;-61
2023/06/17 09:45:59;;;;;;;7.62;3.22;;;;;;;25.67;39.16;99192.53;4330914;33;33094;-61
2023/06/17 09:48:31;;;;;;;5.60;2.67;;;;;;;25.23;40.77;99196.31;4330562;33;33946;-61
2023/06/17 09:51:00;;;;;;;6.28;2.95;;;;;;;25.74;39.30;99187.00;4328349;33;34086;-61
2023/06/17 09:53:29;;;;;;;6.05;3.10;;;;;;;25.32;41.08;99194.97;4333061;33;33896;-61
2023/06/17 09:55:59;;;;;;;5.12;2.58;;;;;;;26.18;39.87;99196.03;4327022;33;34283;-61
2023/06/17 09:58:29;;;;;;;5.50;3.08;;;;;;;25.90;39.53;99194.66;4319397;33;33478;-61
2023/06/17 10:00:58;;;;;;;5.90;2.72;;;;;;;25.93;38.81;99191.44;4334497;33;34130;-60
2023/06/17 10:03:28;;;;;;;7.32;2.72;;;;;;;25.75;39.53;99188.69;4328208;33;34154;-61
2023/06/17 10:06:07;;;;;;;4.47;2.65;;;;;;;25.91;40.25;99192.78;4335444;33;34269;-61
2023/06/17 10:08:53;;;;;;;4.53;2.78;;;;;;;25.49;40.26;99190.63;4330382;33;33632;-61
2023/06/17 10:11:22;;;;;;;4.20;2.67;;;;;;;25.59;39.66;99192.00;4336629;33;34519;-61
2023/06/17 10:13:54;;;;;;;5.82;2.78;;;;;;;25.87;38.34;99195.09;4321394;33;33596;-61
2023/06/17 10:16:23;;;;;;;5.72;2.92;;;;;;;25.73;38.89;99199.88;4333819;33;33432;-61
2023/06/17 10:18:53;;;;;;;5.87;3.15;;;;;;;25.89;38.68;99192.97;4333988;33;33494;-61
2023/06/17 10:21:23;;;;;;;6.93;3.33;;;;;;;25.72;38.94;99194.63;4314353;33;35040;-61
2023/06/17 10:23:52;;;;;;;4.65;2.45;;;;;;;25.71;39.41;99198.41;4324772;33;34676;-61
2023/06/17 10:26:21;;;;;;;5.10;2.50;;;;;;;25.50;39.54;99202.41;4314835;33;33217;-61
2023/06/17 10:28:51;;;;;;;6.57;2.22;;;;;;;25.48;39.85;99210.00;4328033;33;34241;-61
2023/06/17 10:31:27;;;;;;;5.35;2.65;;;;;;;24.90;40.40;99212.97;4328554;33;34085;-61
2023/06/17 10:33:57;;;;;;;5.32;2.60;;;;;;;25.62;39.28;99206.09;4334676;33;34574;-61
2023/06/17 10:36:26;;;;;;;6.40;2.70;;;;;;;25.33;40.02;99207.63;4329181;33;33180;-61
2023/06/17 10:39:04;;;;;;;6.72;2.78;;;;;;;24.88;41.00;99204.97;4334455;33;34976;-61
2023/06/17 10:41:52;;;;;;;9.82;2.95;;;;;;;24.99;41.45;99206.16;4317331;33;34301;-61
2023/06/17 10:44:35;;;;;;;5.18;2.83;;;;;;;25.45;39.35;99203.06;4329201;33;34624;-62
2023/06/17 10:47:15;;;;;;;3.85;2.30;;;;;;;25.74;40.15;99201.53;4329631;33;33337;-61
2023/06/17 10:49:43;;;;;;;8.32;3.42;;;;;;;25.71;40.22;99210.19;4331790;33;33730;-61
2023/06/17 10:52:12;;;;;;;4.60;3.10;;;;;;;25.87;39.29;99203.31;4327691;33;33866;-61
2023/06/17 10:54:53;;;;;;;7.87;3.00;;;;;;;25.75;39.83;99205.12;4330971;33;34755;-61
2023/06/17 10:57:28;;;;;;;4.75;2.40;;;;;;;26.15;39.10;99212.94;4332307;33;33244;-61
2023/06/17 10:59:59;;;;;;;4.87;2.70;;;;;;;26.17;38.59;99206.16;4329777;33;34652;-61
2023/06/17 11:02:27;;;;;;;5.50;3.05;;;;;;;26.06;39.02;99212.41;4331321;33;33679;-61
2023/06/17 11:04:56;;;;;;;10.35;3.12;;;;;;;26.08;38.60;99203.97;4328325;33;33823;-61
2023/06/17 11:07:26;;;;;;;11.02;3.25;;;;;;;26.18;37.99;99193.28;4342894;33;34578;-61
2023/06/17 11:09:54;;;;;;;5.07;2.85;;;;;;;26.03;38.61;99193.66;4330948;33;34606;-61
2023/06/17 11:12:21;;;;;;;4.32;2.35;;;;;;;26.32;37.80;99191.22;4336750;33;35058;-62
2023/06/17 11:14:49;;;;;;;5.28;2.80;;;;;;;26.60;37.08;99191.50;4320709;33;33491;-61
2023/06/17 11:17:17;;;;;;;6.37;2.90;;;;;;;25.82;37.77;99194.13;4330346;33;33253;-61
2023/06/17 11:19:45;;;;;;;8.15;2.85;;;;;;;25.72;38.94;99194.63;4330804;33;34661;-61
2023/06/17 11:22:13;;;;;;;4.45;2.78;;;;;;;26.18;38.61;99187.81;4328695;33;33812;-61
2023/06/17 11:24:43;;;;;;;5.85;2.92;;;;;;;26.43;38.68;99187.69;4332182;33;35062;-61
2023/06/17 11:27:12;;;;;;;4.70;2.55;;;;;;;26.24;38.59;99187.72;4332535;33;33418;-61
2023/06/17 11:29:41;;;;;;;3.62;1.95;;;;;;;26.62;37.90;99192.13;4332315;33;33877;-61
2023/06/17 11:32:10;;;;;;;3.90;2.20;;;;;;;26.47;35.99;99197.12;4337445;33;34269;-61
2023/06/17 11:34:40;;;;;;;7.22;3.97;;;;;;;27.20;35.36;99190.63;4330855;33;34040;-61
2023/06/17 11:37:10;;;;;;;8.95;5.53;;;;;;;26.22;37.67;99197.25;4333518;33;33075;-60
2023/06/17 11:39:39;;;;;;;6.37;3.00;;;;;;;26.18;37.77;99194.13;4333496;33;34238;-61
2023/06/17 11:42:07;;;;;;;5.12;2.85;;;;;;;26.52;37.70;99193.72;4335912;33;35016;-61